Swansboro, North Carolina
Current Conditions -  °F | °C
As of 7:57 AM on Wednesday 26 Nov 2014 (Local Time) from KNJM Reporting Station
Overcast Overcast  
Wind Chill: 70°   Ceiling: 7000
Heat Index: 70°   Visibility: 7mi
Dew Point: 68°   Wind: 10mph
Humidity: 93%   Direction: 180°S
Pressure: 29.74"   Gusts: NA
Location:  34.69°N, 77.12°W
Report Text: KNJM 261257Z 18009KT 7SM OVC070 21/20 A2974 RMK AO2 SLP076 FIRST AUGMENTED T02110200
Loading
Personal Weather Stations






























Interactive Weather Map New forecast layout! Learn more

10-Day Weather Forecast

Advertisements
Track Severe Weather on mobile